createdAt,value
2022-11-22T00:01:52.275Z,5.00
2022-11-22T00:04:20.330Z,4.65
2022-11-22T00:06:49.363Z,4.93
2022-11-22T00:09:17.332Z,4.47
2022-11-22T00:11:45.270Z,4.47
2022-11-22T00:14:14.232Z,5.87
2022-11-22T00:19:11.021Z,3.97
2022-11-22T00:21:41.133Z,3.92
2022-11-22T00:24:09.518Z,4.65
2022-11-22T00:26:37.475Z,5.47
2022-11-22T00:29:07.154Z,4.60
2022-11-22T00:31:35.227Z,4.68
2022-11-22T00:34:03.357Z,3.85
2022-11-22T00:36:31.495Z,4.35
2022-11-22T00:38:59.486Z,4.38
2022-11-22T00:41:27.475Z,5.43
2022-11-22T00:43:55.613Z,4.18
2022-11-22T00:46:23.517Z,4.72
2022-11-22T00:48:52.664Z,4.10
2022-11-22T00:51:20.857Z,4.97
2022-11-22T00:53:48.916Z,4.90
2022-11-22T00:56:16.970Z,5.13
2022-11-22T00:58:45.138Z,5.30
2022-11-22T01:01:13.177Z,4.32
2022-11-22T01:03:41.218Z,4.85
2022-11-22T01:06:09.470Z,4.53
2022-11-22T01:08:37.458Z,4.63
2022-11-22T01:11:05.421Z,5.95
2022-11-22T01:13:36.395Z,5.47
2022-11-22T01:16:10.342Z,5.57
2022-11-22T01:18:38.612Z,5.72
2022-11-22T01:21:06.820Z,5.65
2022-11-22T01:23:35.424Z,5.43
2022-11-22T01:26:03.906Z,6.32
2022-11-22T01:28:33.501Z,5.85
2022-11-22T01:31:03.471Z,5.03
2022-11-22T01:33:31.559Z,5.85
2022-11-22T01:36:00.754Z,6.28
2022-11-22T01:38:28.822Z,5.85
2022-11-22T01:40:56.835Z,6.97
2022-11-22T01:43:28.165Z,5.50
2022-11-22T01:46:08.387Z,6.13
2022-11-22T01:48:45.881Z,6.53
2022-11-22T01:51:26.883Z,6.32
2022-11-22T01:54:00.068Z,5.50
2022-11-22T01:56:30.472Z,5.05
2022-11-22T01:59:03.499Z,7.35
2022-11-22T02:01:34.275Z,6.25
2022-11-22T02:04:05.912Z,7.22
2022-11-22T02:06:50.752Z,6.40
2022-11-22T02:09:19.147Z,6.55
2022-11-22T02:11:52.767Z,7.40
2022-11-22T02:14:28.121Z,5.75
2022-11-22T02:16:56.191Z,7.38
2022-11-22T02:19:46.095Z,8.10
2022-11-22T02:22:34.934Z,6.88
2022-11-22T02:27:51.525Z,7.60
2022-11-22T02:30:20.151Z,7.63
2022-11-22T02:32:49.420Z,7.65
2022-11-22T02:35:23.675Z,7.43
2022-11-22T02:38:00.811Z,6.45
2022-11-22T02:40:48.135Z,8.80
2022-11-22T02:43:23.936Z,6.90
2022-11-22T02:45:51.877Z,8.45
2022-11-22T02:48:20.202Z,7.60
2022-11-22T02:50:50.844Z,7.80
2022-11-22T02:53:18.865Z,7.55
2022-11-22T02:55:46.827Z,8.13
2022-11-22T02:58:15.711Z,6.55
2022-11-22T03:00:43.724Z,7.38
2022-11-22T03:03:11.695Z,6.20
2022-11-22T03:05:39.769Z,8.05
2022-11-22T03:08:07.772Z,7.30
2022-11-22T03:10:35.714Z,7.88
2022-11-22T03:13:05.291Z,7.68
2022-11-22T03:15:33.344Z,7.35
2022-11-22T03:18:03.332Z,6.72
2022-11-22T03:20:33.077Z,7.50
2022-11-22T03:23:04.147Z,4.50
2022-11-22T03:25:32.115Z,6.68
2022-11-22T03:28:00.082Z,7.97
2022-11-22T03:30:28.966Z,8.15
2022-11-22T03:32:57.045Z,7.35
2022-11-22T03:35:25.286Z,5.00
2022-11-22T03:37:54.231Z,5.13
2022-11-22T03:40:22.182Z,7.50
2022-11-22T03:42:50.150Z,8.07
2022-11-22T03:45:19.168Z,7.88
2022-11-22T03:47:47.125Z,7.68
2022-11-22T03:50:15.125Z,7.03
2022-11-22T03:52:44.269Z,7.75
2022-11-22T03:57:40.694Z,7.10
2022-11-22T04:00:11.301Z,7.45
2022-11-22T04:02:39.378Z,7.65
2022-11-22T04:05:07.798Z,7.15
2022-11-22T04:07:37.217Z,7.22
2022-11-22T04:10:06.509Z,9.57
2022-11-22T04:12:35.010Z,7.80
2022-11-22T04:15:12.002Z,7.53
2022-11-22T04:17:44.823Z,8.15
2022-11-22T04:20:35.309Z,8.07
2022-11-22T04:23:06.080Z,7.53
2022-11-22T04:25:36.445Z,8.60
2022-11-22T04:28:07.058Z,8.90
2022-11-22T04:30:54.424Z,8.50
2022-11-22T04:33:22.977Z,7.30
2022-11-22T04:35:51.416Z,8.75
2022-11-22T04:38:20.473Z,8.52
2022-11-22T04:40:49.752Z,7.20
2022-11-22T04:43:44.745Z,7.57
2022-11-22T04:46:14.372Z,6.57
2022-11-22T04:48:43.064Z,8.10
2022-11-22T04:51:35.066Z,6.97
2022-11-22T04:54:03.052Z,8.32
2022-11-22T04:56:31.019Z,6.78
2022-11-22T04:58:59.212Z,7.03
2022-11-22T05:01:27.224Z,9.67
2022-11-22T05:03:55.139Z,5.78
2022-11-22T05:06:24.128Z,8.82
2022-11-22T05:08:52.173Z,8.95
2022-11-22T05:11:20.201Z,9.10
2022-11-22T05:13:48.290Z,8.63
2022-11-22T05:16:16.819Z,8.27
2022-11-22T05:18:44.837Z,7.32
2022-11-22T05:21:18.049Z,8.63
2022-11-22T05:23:55.056Z,7.30
2022-11-22T05:26:28.445Z,7.72
2022-11-22T05:28:58.692Z,7.25
2022-11-22T05:31:28.072Z,8.63
2022-11-22T05:33:58.823Z,8.15
2022-11-22T05:36:27.077Z,7.57
2022-11-22T05:38:55.840Z,6.63
2022-11-22T05:41:24.925Z,7.53
2022-11-22T05:46:25.478Z,5.60
2022-11-22T05:48:56.351Z,6.93
2022-11-22T05:51:32.526Z,6.63
2022-11-22T05:54:03.526Z,6.25
2022-11-22T05:56:31.799Z,7.60
2022-11-22T05:58:59.967Z,6.70
2022-11-22T06:01:28.172Z,7.05
2022-11-22T06:03:57.285Z,7.63
2022-11-22T06:06:25.315Z,7.00
2022-11-22T06:08:53.288Z,7.05
2022-11-22T06:11:26.634Z,7.40
2022-11-22T06:13:56.818Z,5.85
2022-11-22T06:16:26.354Z,8.00
2022-11-22T06:18:57.927Z,6.28
2022-11-22T06:21:29.128Z,6.32
2022-11-22T06:23:57.348Z,7.60
2022-11-22T06:26:27.949Z,5.82
2022-11-22T06:28:56.041Z,7.47
2022-11-22T06:31:26.524Z,7.15
2022-11-22T06:33:57.247Z,6.57
2022-11-22T06:36:28.048Z,6.85
2022-11-22T06:38:56.306Z,7.55
2022-11-22T06:41:28.359Z,6.82
2022-11-22T06:43:59.286Z,8.65
2022-11-22T06:46:28.305Z,6.32
2022-11-22T06:48:56.440Z,6.18
2022-11-22T06:51:28.120Z,7.15
2022-11-22T06:53:58.448Z,6.53
2022-11-22T06:56:30.474Z,6.38
2022-11-22T06:58:58.513Z,6.32
2022-11-22T07:01:29.229Z,6.60
2022-11-22T07:04:01.031Z,7.07
2022-11-22T07:06:31.864Z,5.65
2022-11-22T07:09:01.211Z,6.30
2022-11-22T07:14:07.043Z,6.05
2022-11-22T07:16:38.072Z,6.32
2022-11-22T07:19:07.525Z,7.10
2022-11-22T07:21:37.844Z,6.03
2022-11-22T07:24:07.513Z,7.10
2022-11-22T07:26:35.523Z,6.20
2022-11-22T07:29:03.905Z,5.97
2022-11-22T07:31:34.105Z,6.47
2022-11-22T07:34:02.113Z,6.38
2022-11-22T07:36:31.155Z,5.97
2022-11-22T07:38:59.662Z,5.63
2022-11-22T07:41:27.655Z,5.72
2022-11-22T07:43:56.264Z,6.10
2022-11-22T07:46:33.829Z,6.97
2022-11-22T07:49:03.494Z,6.75
2022-11-22T07:51:32.027Z,5.95
2022-11-22T07:54:01.083Z,6.10
2022-11-22T07:56:29.110Z,6.47
2022-11-22T07:58:57.060Z,5.50
2022-11-22T08:01:27.155Z,6.38
2022-11-22T08:03:55.206Z,7.28
2022-11-22T08:06:23.256Z,6.28
2022-11-22T08:08:57.040Z,6.05
2022-11-22T08:11:28.618Z,6.43
2022-11-22T08:13:56.919Z,6.70
2022-11-22T08:16:24.944Z,5.57
2022-11-22T08:18:52.932Z,6.03
2022-11-22T08:21:21.412Z,5.70
2022-11-22T08:23:51.891Z,5.53
2022-11-22T08:26:21.619Z,5.85
2022-11-22T08:28:51.226Z,5.40
2022-11-22T08:31:20.422Z,5.75
2022-11-22T08:33:49.581Z,5.32
2022-11-22T08:36:17.764Z,6.38
2022-11-22T08:38:45.816Z,6.82
2022-11-22T08:41:14.157Z,5.70
2022-11-22T08:43:42.418Z,6.13
2022-11-22T08:46:10.491Z,5.80
2022-11-22T08:48:39.596Z,5.68
2022-11-22T08:51:11.849Z,5.82
2022-11-22T08:53:42.351Z,5.75
2022-11-22T08:56:13.907Z,5.35
2022-11-22T08:58:44.969Z,6.10
2022-11-22T09:01:16.749Z,5.30
2022-11-22T09:03:45.823Z,7.10
2022-11-22T09:11:52.729Z,6.40
2022-11-22T09:14:20.748Z,6.50
2022-11-22T09:16:48.720Z,6.03
2022-11-22T09:19:17.751Z,7.22
2022-11-22T09:21:45.708Z,6.35
2022-11-22T09:24:14.546Z,5.85
2022-11-22T09:26:44.199Z,6.40
2022-11-22T09:29:12.212Z,6.40
2022-11-22T09:31:40.175Z,8.10
2022-11-22T09:34:08.958Z,6.28
2022-11-22T09:36:37.008Z,7.75
2022-11-22T09:39:05.189Z,5.70
2022-11-22T09:41:57.064Z,6.80
2022-11-22T09:44:38.845Z,7.68
2022-11-22T09:47:34.087Z,5.55
2022-11-22T09:50:26.414Z,6.00
2022-11-22T09:53:17.211Z,6.57
2022-11-22T09:55:57.817Z,7.60
2022-11-22T09:58:44.490Z,5.50
2022-11-22T10:01:28.233Z,6.25
2022-11-22T10:04:07.046Z,6.53
2022-11-22T10:06:38.061Z,6.43
2022-11-22T10:09:12.070Z,5.50
2022-11-22T10:11:59.984Z,6.57
2022-11-22T10:14:42.960Z,7.28
2022-11-22T10:17:39.703Z,5.60
2022-11-22T10:20:13.496Z,5.88
2022-11-22T10:22:41.690Z,5.72
2022-11-22T10:25:36.200Z,5.60
2022-11-22T10:28:18.995Z,5.95
2022-11-22T10:31:17.772Z,6.47
2022-11-22T10:34:04.028Z,6.50
2022-11-22T10:36:43.373Z,5.75
2022-11-22T10:39:17.148Z,5.72
2022-11-22T10:41:59.269Z,6.13
2022-11-22T10:44:50.095Z,6.97
2022-11-22T10:47:56.186Z,6.47
2022-11-22T10:50:33.595Z,6.85
2022-11-22T10:53:16.551Z,6.40
2022-11-22T10:55:51.701Z,6.82
2022-11-22T10:58:37.348Z,6.32
2022-11-22T11:01:21.929Z,6.65
2022-11-22T11:03:55.799Z,6.70
2022-11-22T11:12:30.347Z,5.97
2022-11-22T11:15:14.032Z,6.45
2022-11-22T11:17:47.170Z,6.43
2022-11-22T11:20:26.420Z,7.28
2022-11-22T11:25:45.690Z,4.30
2022-11-22T11:28:31.672Z,6.03
2022-11-22T11:31:49.259Z,5.10
2022-11-22T11:34:27.325Z,5.78
2022-11-22T11:36:58.674Z,5.13
2022-11-22T11:39:32.383Z,5.07
2022-11-22T11:42:01.324Z,6.00
2022-11-22T11:44:36.021Z,4.70
2022-11-22T11:47:06.788Z,4.57
2022-11-22T11:49:35.875Z,4.97
2022-11-22T11:52:20.308Z,4.07
2022-11-22T11:54:57.346Z,5.25
2022-11-22T11:57:37.447Z,4.47
2022-11-22T12:00:19.871Z,4.55
2022-11-22T12:02:51.276Z,4.72
2022-11-22T12:05:19.226Z,4.47
2022-11-22T12:07:50.116Z,4.82
2022-11-22T12:10:59.560Z,4.80
2022-11-22T12:16:55.849Z,4.78
2022-11-22T12:19:58.482Z,4.38
2022-11-22T12:23:05.632Z,5.10
2022-11-22T12:25:43.405Z,5.78
2022-11-22T12:28:20.115Z,4.07
2022-11-22T12:31:00.469Z,4.32
2022-11-22T12:33:39.072Z,4.45
2022-11-22T12:36:27.090Z,4.43
2022-11-22T12:39:03.582Z,4.28
2022-11-22T12:41:35.051Z,3.95
2022-11-22T12:44:06.840Z,4.22
2022-11-22T12:46:46.341Z,4.47
2022-11-22T12:49:26.876Z,4.10
2022-11-22T12:52:01.607Z,3.72
2022-11-22T12:55:02.012Z,4.22
2022-11-22T12:57:52.489Z,4.18
2022-11-22T13:00:25.954Z,4.00
2022-11-22T13:03:06.268Z,4.30
2022-11-22T13:05:57.396Z,3.72
2022-11-22T13:08:39.715Z,4.57
2022-11-22T13:11:19.196Z,4.38
2022-11-22T13:13:59.358Z,4.13
2022-11-22T13:16:29.936Z,4.10
2022-11-22T13:19:03.681Z,3.83
2022-11-22T13:22:04.164Z,4.15
2022-11-22T13:24:35.322Z,4.20
2022-11-22T13:27:09.029Z,4.38
2022-11-22T13:29:41.126Z,4.00
2022-11-22T13:32:11.724Z,4.28
2022-11-22T13:35:01.287Z,4.07
2022-11-22T13:37:38.629Z,4.25
2022-11-22T13:40:21.639Z,4.75
2022-11-22T13:43:13.782Z,4.00
2022-11-22T13:45:54.754Z,3.78
2022-11-22T13:48:40.770Z,3.78
2022-11-22T13:51:21.091Z,3.92
2022-11-22T13:53:50.450Z,4.22
2022-11-22T13:56:21.192Z,5.18
2022-11-22T13:58:51.330Z,3.90
2022-11-22T14:01:52.449Z,4.30
2022-11-22T14:04:27.871Z,4.13
2022-11-22T14:07:11.705Z,3.45
2022-11-22T14:09:52.672Z,3.92
2022-11-22T14:12:54.798Z,3.83
2022-11-22T14:15:53.856Z,3.97
2022-11-22T14:21:19.094Z,4.38
2022-11-22T14:24:07.018Z,3.78
2022-11-22T14:27:00.693Z,3.60
2022-11-22T14:29:56.467Z,4.82
2022-11-22T14:32:27.193Z,4.13
2022-11-22T14:35:04.272Z,5.25
2022-11-22T14:37:35.986Z,4.32
2022-11-22T14:40:09.889Z,4.03
2022-11-22T14:42:47.759Z,4.35
2022-11-22T14:45:26.934Z,4.28
2022-11-22T14:50:39.315Z,4.07
2022-11-22T14:53:35.719Z,3.75
2022-11-22T14:56:15.487Z,4.13
2022-11-22T14:58:53.261Z,4.75
2022-11-22T15:01:44.195Z,4.50
2022-11-22T15:09:18.206Z,4.07
2022-11-22T15:09:18.783Z,4.28
2022-11-22T15:10:22.122Z,4.22
2022-11-22T15:13:17.311Z,4.15
2022-11-22T15:59:45.315Z,3.20
2022-11-22T16:02:23.274Z,3.78
2022-11-22T16:06:06.775Z,4.30
2022-11-22T16:07:53.204Z,4.45
2022-11-22T16:10:43.225Z,3.72
2022-11-22T16:13:21.039Z,3.75
2022-11-22T16:16:19.511Z,4.13
2022-11-22T16:18:49.128Z,4.03
2022-11-22T16:21:17.135Z,3.92
2022-11-22T16:23:46.288Z,4.13
2022-11-22T16:28:54.082Z,3.55
2022-11-22T16:31:33.036Z,3.63
2022-11-22T16:34:02.257Z,5.53
2022-11-22T16:36:30.984Z,3.80
2022-11-22T16:39:00.106Z,4.55
2022-11-22T16:41:30.193Z,4.72
2022-11-22T16:44:03.258Z,4.00
2022-11-22T16:46:31.483Z,4.35
2022-11-22T16:48:59.520Z,4.00
2022-11-22T16:51:29.977Z,3.87
2022-11-22T16:54:01.285Z,4.15
2022-11-22T16:56:32.769Z,4.53
2022-11-22T16:59:00.767Z,4.00
2022-11-22T17:01:35.652Z,4.75
2022-11-22T17:04:03.973Z,4.28
2022-11-22T17:06:33.017Z,4.15
2022-11-22T17:11:33.268Z,3.50
2022-11-22T17:14:01.665Z,3.78
2022-11-22T17:16:29.973Z,3.80
2022-11-22T17:19:00.283Z,4.70
2022-11-22T17:21:37.357Z,4.63
2022-11-22T17:24:16.039Z,4.10
2022-11-22T17:26:44.060Z,4.13
2022-11-22T17:29:34.852Z,3.63
2022-11-22T17:33:00.753Z,4.45
2022-11-22T17:35:34.490Z,4.40
2022-11-22T17:38:05.998Z,4.80
2022-11-22T17:40:34.036Z,4.68
2022-11-22T17:43:02.236Z,3.47
2022-11-22T17:45:30.660Z,4.50
2022-11-22T17:47:58.586Z,4.40
2022-11-22T17:50:26.612Z,3.60
2022-11-22T17:52:54.757Z,3.40
2022-11-22T17:55:23.128Z,4.07
2022-11-22T17:57:55.825Z,4.53
2022-11-22T18:00:29.712Z,4.65
2022-11-22T18:02:59.653Z,3.85
2022-11-22T18:05:33.036Z,4.55
2022-11-22T18:08:01.031Z,4.70
2022-11-22T18:10:29.045Z,4.57
2022-11-22T18:13:20.340Z,4.10
2022-11-22T18:16:02.920Z,4.15
2022-11-22T18:21:26.392Z,5.05
2022-11-22T18:26:41.780Z,4.32
2022-11-22T18:32:02.935Z,4.25
2022-11-22T18:34:32.078Z,4.22
2022-11-22T18:39:39.481Z,4.00
2022-11-22T18:42:12.536Z,4.63
2022-11-22T18:44:40.582Z,3.90
2022-11-22T18:47:10.109Z,4.47
2022-11-22T18:49:38.123Z,4.40
2022-11-22T18:52:06.332Z,4.07
2022-11-22T18:54:35.912Z,3.95
2022-11-22T18:57:04.416Z,4.40
2022-11-22T18:59:33.109Z,4.40
2022-11-22T19:02:01.217Z,4.32
2022-11-22T19:04:29.573Z,4.03
2022-11-22T19:06:57.899Z,4.70
2022-11-22T19:09:26.137Z,3.25
2022-11-22T19:11:58.641Z,4.45
2022-11-22T19:14:29.853Z,5.28
2022-11-22T19:16:58.234Z,4.45
2022-11-22T19:19:26.332Z,4.00
2022-11-22T19:24:26.127Z,3.92
2022-11-22T19:26:54.312Z,4.00
2022-11-22T19:29:22.606Z,4.13
2022-11-22T19:31:50.689Z,4.47
2022-11-22T19:34:18.722Z,4.73
2022-11-22T19:36:46.708Z,4.60
2022-11-22T19:39:17.128Z,4.47
2022-11-22T19:41:45.911Z,4.53
2022-11-22T19:44:14.034Z,5.00
2022-11-22T19:46:44.230Z,4.88
2022-11-22T19:49:12.465Z,4.10
2022-11-22T19:51:40.462Z,3.65
2022-11-22T19:54:08.696Z,4.13
2022-11-22T19:56:38.567Z,5.13
2022-11-22T19:59:08.561Z,4.15
2022-11-22T20:01:38.156Z,4.32
2022-11-22T20:04:07.140Z,4.07
2022-11-22T20:06:37.402Z,3.90
2022-11-22T20:09:13.905Z,4.53
2022-11-22T20:11:43.014Z,4.25
2022-11-22T20:14:11.416Z,4.57
2022-11-22T20:16:42.485Z,3.58
2022-11-22T20:19:12.858Z,3.78
2022-11-22T20:21:41.197Z,4.10
2022-11-22T20:24:09.824Z,4.00
2022-11-22T20:26:37.894Z,3.38
2022-11-22T20:29:08.577Z,3.90
2022-11-22T20:31:41.085Z,3.72
2022-11-22T20:34:11.039Z,3.83
2022-11-22T20:36:38.987Z,4.18
2022-11-22T20:39:11.028Z,3.83
2022-11-22T20:41:41.007Z,3.88
2022-11-22T20:44:13.314Z,4.18
2022-11-22T20:46:42.669Z,3.90
2022-11-22T20:49:10.703Z,4.00
2022-11-22T20:51:43.235Z,4.05
2022-11-22T20:54:12.579Z,4.43
2022-11-22T20:56:40.538Z,4.22
2022-11-22T20:59:08.546Z,3.65
2022-11-22T21:01:38.111Z,3.50
2022-11-22T21:04:06.367Z,3.78
2022-11-22T21:06:35.553Z,3.78
2022-11-22T21:09:04.989Z,4.15
2022-11-22T21:11:33.205Z,3.80
2022-11-22T21:14:01.186Z,4.38
2022-11-22T21:16:31.534Z,3.60
2022-11-22T21:19:06.906Z,3.38
2022-11-22T21:21:39.386Z,3.67
2022-11-22T21:24:08.287Z,3.47
2022-11-22T21:26:37.293Z,4.10
2022-11-22T21:29:14.669Z,3.83
2022-11-22T21:34:12.402Z,3.72
2022-11-22T21:36:40.547Z,3.95
2022-11-22T21:39:08.425Z,3.40
2022-11-22T21:41:40.799Z,3.22
2022-11-22T21:44:11.515Z,3.72
2022-11-22T21:46:39.505Z,2.67
2022-11-22T21:49:07.622Z,3.97
2022-11-22T21:51:35.740Z,4.45
2022-11-22T21:54:04.517Z,3.83
2022-11-22T21:56:32.576Z,4.50
2022-11-22T21:59:01.865Z,3.03
2022-11-22T22:01:29.941Z,2.65
2022-11-22T22:03:58.020Z,1.73
2022-11-22T22:06:26.305Z,2.27
2022-11-22T22:08:54.314Z,1.92
2022-11-22T22:11:22.935Z,2.13
2022-11-22T22:13:56.014Z,1.67
2022-11-22T22:16:26.254Z,1.42
2022-11-22T22:18:55.013Z,1.50
2022-11-22T22:21:23.301Z,1.67
2022-11-22T22:23:51.326Z,1.35
2022-11-22T22:26:19.428Z,1.27
2022-11-22T22:28:47.750Z,1.60
2022-11-22T22:31:22.093Z,1.80
2022-11-22T22:33:59.047Z,1.42
2022-11-22T22:36:28.016Z,1.80
2022-11-22T22:41:26.184Z,1.58
2022-11-22T22:43:54.112Z,1.77
2022-11-22T22:46:25.299Z,1.42
2022-11-22T22:48:55.777Z,1.17
2022-11-22T22:51:32.427Z,0.93
2022-11-22T22:54:01.985Z,0.97
2022-11-22T22:56:31.844Z,1.30
2022-11-22T22:59:01.464Z,1.13
2022-11-22T23:01:32.232Z,1.10
2022-11-22T23:04:06.188Z,0.80
2022-11-22T23:06:39.968Z,0.85
2022-11-22T23:09:10.381Z,1.00
2022-11-22T23:11:57.670Z,0.82
2022-11-22T23:14:27.943Z,1.33
2022-11-22T23:16:58.279Z,0.70
2022-11-22T23:19:27.654Z,1.00
2022-11-22T23:24:24.146Z,0.88
2022-11-22T23:26:54.956Z,1.80
2022-11-22T23:29:23.027Z,1.00
2022-11-22T23:31:51.038Z,0.82
2022-11-22T23:34:20.113Z,0.88
2022-11-22T23:36:48.176Z,1.10
2022-11-22T23:39:16.322Z,0.70
2022-11-22T23:41:47.293Z,0.63
2022-11-22T23:44:15.313Z,0.87
2022-11-22T23:46:43.294Z,0.70
2022-11-22T23:49:15.359Z,0.95
2022-11-22T23:51:43.427Z,1.03
2022-11-22T23:54:11.553Z,0.65
2022-11-22T23:56:40.955Z,0.95
2022-11-22T23:59:11.060Z,0.67
